Time;durP1;ratioP1;P1;durP2;ratioP2;P2;SDS_P1;SDS_P2;PMS_P1;PMS_P2;Temp;Humidity;BMP_temperature;BMP_pressure;BME280_temperature;BME280_humidity;BME280_pressure;Samples;Min_cycle;Max_cycle;Signal;HPM_P1;HPM_P2
2023/04/01 00:00:00;;;;;;;;;;;;;;;5.44;83.92;99484.54;107619;1256;75231;-80
2023/04/01 00:02:27;;;;;;;;;;;;;;;5.38;84.03;99488.58;107615;1257;67051;-80
2023/04/01 00:04:54;;;;;;;;;;;;;;;5.37;84.16;99488.92;107585;1256;72538;-79
2023/04/01 00:07:22;;;;;;;;;;;;;;;5.33;84.17;99486.89;107727;1260;125788;-79
2023/04/01 00:09:49;;;;;;;;;;;;;;;5.37;84.32;99495.00;108062;1256;60806;-80
2023/04/01 00:12:16;;;;;;;;;;;;;;;5.36;84.16;99495.65;107863;1258;125045;-80
2023/04/01 00:14:43;;;;;;;;;;;;;;;5.34;84.08;99501.19;107648;1256;67523;-80
2023/04/01 00:17:10;;;;;;;;;;;;;;;5.31;84.00;99501.46;107510;1255;72707;-80
2023/04/01 00:19:37;;;;;;;;;;;;;;;5.27;83.95;99497.52;107426;1259;125271;-80
2023/04/01 00:22:05;;;;;;;;;;;;;;;5.26;83.99;99495.41;107327;1256;62064;-80
2023/04/01 00:24:32;;;;;;;;;;;;;;;5.24;83.79;99501.09;107413;1256;125749;-81
2023/04/01 00:26:59;;;;;;;;;;;;;;;5.19;83.78;99502.35;107674;1255;67075;-80
2023/04/01 00:29:30;;;;;;;;;;;;;;;5.11;83.73;99503.52;108907;1255;71871;-80
2023/04/01 00:31:57;;;;;;;;;;;;;;;5.06;83.86;99505.14;108261;1256;124808;-80
2023/04/01 00:34:24;;;;;;;;;;;;;;;5.04;83.86;99505.45;107939;1255;61989;-80
2023/04/01 00:36:52;;;;;;;;;;;;;;;4.98;83.93;99505.44;107626;1256;124782;-80
2023/04/01 00:39:19;;;;;;;;;;;;;;;4.95;83.95;99507.96;107636;1257;67053;-80
2023/04/01 00:41:46;;;;;;;;;;;;;;;4.91;83.99;99501.59;108044;1257;71355;-80
2023/04/01 00:44:17;;;;;;;;;;;;;;;4.86;84.04;99504.77;107920;1257;125355;-80
2023/04/01 00:46:45;;;;;;;;;;;;;;;4.78;84.02;99505.41;107949;1254;60496;-79
2023/04/01 00:49:12;;;;;;;;;;;;;;;4.72;84.14;99496.73;107864;1255;125350;-79
2023/04/01 00:51:39;;;;;;;;;;;;;;;4.68;84.14;99497.13;107645;1256;65747;-79
2023/04/01 00:54:06;;;;;;;;;;;;;;;4.65;84.39;99492.54;107736;1255;125307;-80
2023/04/01 00:56:59;;;;;;;;;;;;;;;4.65;84.49;99497.55;107974;1255;61189;-80
2023/04/01 00:59:27;;;;;;;;;;;;;;;4.58;84.28;99503.45;107993;1254;60056;-80
2023/04/01 01:01:54;;;;;;;;;;;;;;;4.55;84.51;99507.73;108017;1257;125441;-80
2023/04/01 01:04:24;;;;;;;;;;;;;;;4.53;84.65;99499.13;108214;1260;67101;-80
2023/04/01 01:07:09;;;;;;;;;;;;;;;4.54;84.94;99496.72;107998;1256;124813;-79
2023/04/01 01:09:55;;;;;;;;;;;;;;;4.55;84.70;99500.77;108014;1255;61280;-79
2023/04/01 01:12:24;;;;;;;;;;;;;;;4.56;84.81;99497.68;108101;1254;124946;-80
2023/04/01 01:14:53;;;;;;;;;;;;;;;4.60;84.88;99501.09;108167;1256;75359;-80
2023/04/01 01:17:36;;;;;;;;;;;;;;;4.61;84.70;99502.86;108732;1257;65505;-79
2023/04/01 01:20:22;;;;;;;;;;;;;;;4.61;84.75;99507.39;108267;1256;124800;-79
2023/04/01 01:22:49;;;;;;;;;;;;;;;4.60;84.60;99507.17;107949;1257;61544;-79
2023/04/01 01:25:28;;;;;;;;;;;;;;;4.58;84.73;99510.39;107745;1259;124816;-79
2023/04/01 01:28:03;;;;;;;;;;;;;;;4.58;84.95;99513.33;107916;1256;73698;-78
2023/04/01 01:30:35;;;;;;;;;;;;;;;4.59;84.77;99514.27;107887;1255;126227;-81
2023/04/01 01:33:02;;;;;;;;;;;;;;;4.58;84.68;99512.50;108066;1257;72268;-81
2023/04/01 01:35:34;;;;;;;;;;;;;;;4.59;84.72;99514.25;108203;1256;60802;-80
2023/04/01 01:38:09;;;;;;;;;;;;;;;4.60;84.79;99516.56;107928;1256;125094;-80
2023/04/01 01:40:35;;;;;;;;;;;;;;;4.59;84.57;99519.98;107957;1257;75520;-80
2023/04/01 01:43:06;;;;;;;;;;;;;;;4.55;84.45;99523.88;108076;1256;125504;-80
2023/04/01 01:45:36;;;;;;;;;;;;;;;4.54;84.55;99520.54;107763;1256;71401;-80
2023/04/01 01:48:02;;;;;;;;;;;;;;;4.57;84.80;99516.11;108641;1257;125098;-81
2023/04/01 01:50:30;;;;;;;;;;;;;;;4.59;84.73;99517.05;109006;1256;60183;-81
2023/04/01 01:53:15;;;;;;;;;;;;;;;4.59;84.74;99518.08;108137;1256;75513;-81
2023/04/01 01:55:43;;;;;;;;;;;;;;;4.60;84.64;99519.14;107969;1255;124988;-81
2023/04/01 01:58:12;;;;;;;;;;;;;;;4.57;84.95;99514.01;108220;1255;73231;-81
2023/04/01 02:00:40;;;;;;;;;;;;;;;4.56;84.79;99516.09;108236;1256;125858;-81
2023/04/01 02:03:07;;;;;;;;;;;;;;;4.57;84.90;99518.37;108023;1256;60360;-81
2023/04/01 02:05:34;;;;;;;;;;;;;;;4.57;84.81;99518.53;107697;1256;75485;-81
2023/04/01 02:08:14;;;;;;;;;;;;;;;4.56;85.02;99520.41;107561;1256;125729;-81
2023/04/01 02:10:42;;;;;;;;;;;;;;;4.58;84.87;99520.13;107778;1256;73236;-80
2023/04/01 02:13:13;;;;;;;;;;;;;;;4.57;84.81;99520.27;107786;1256;125254;-80
2023/04/01 02:15:41;;;;;;;;;;;;;;;4.55;84.93;99517.77;107940;1256;60725;-80
2023/04/01 02:18:08;;;;;;;;;;;;;;;4.58;85.04;99517.15;107957;1254;74470;-80
2023/04/01 02:20:35;;;;;;;;;;;;;;;4.56;85.02;99521.12;108141;1256;65774;-81
2023/04/01 02:23:02;;;;;;;;;;;;;;;4.54;85.01;99519.83;108829;1256;71345;-81
2023/04/01 02:25:30;;;;;;;;;;;;;;;4.56;85.17;99523.01;108795;1256;125112;-78
2023/04/01 02:27:58;;;;;;;;;;;;;;;4.58;85.04;99517.88;108977;1255;60622;-78
2023/04/01 02:30:25;;;;;;;;;;;;;;;4.57;84.98;99522.52;108828;1256;125170;-78
2023/04/01 02:32:52;;;;;;;;;;;;;;;4.57;85.08;99523.76;108620;1256;65428;-78
2023/04/01 02:35:19;;;;;;;;;;;;;;;4.58;84.94;99529.36;108001;1255;71324;-79
2023/04/01 02:37:48;;;;;;;;;;;;;;;4.52;84.91;99528.13;107817;1256;125456;-79
2023/04/01 02:40:15;;;;;;;;;;;;;;;4.47;84.88;99527.80;107743;1258;62008;-79
2023/04/01 02:42:43;;;;;;;;;;;;;;;4.45;85.07;99531.23;107429;1257;125085;-79
2023/04/01 02:45:11;;;;;;;;;;;;;;;4.46;85.17;99535.77;107587;1260;67122;-79
2023/04/01 02:47:37;;;;;;;;;;;;;;;4.46;85.34;99539.60;107698;1259;73226;-79
2023/04/01 02:50:05;;;;;;;;;;;;;;;4.49;85.33;99538.11;107564;1257;125222;-80
2023/04/01 02:52:32;;;;;;;;;;;;;;;4.49;85.21;99541.91;107774;1255;61958;-79
2023/04/01 02:54:59;;;;;;;;;;;;;;;4.47;85.25;99540.32;107907;1254;125116;-79
2023/04/01 02:57:26;;;;;;;;;;;;;;;4.52;85.51;99540.44;107602;1256;65762;-79
2023/04/01 02:59:53;;;;;;;;;;;;;;;4.55;85.51;99539.13;107885;1256;71199;-79
2023/04/01 03:02:20;;;;;;;;;;;;;;;4.56;85.46;99540.05;108032;1257;125837;-79
2023/04/01 03:04:47;;;;;;;;;;;;;;;4.51;85.30;99540.59;108077;1257;62159;-79
2023/04/01 03:07:14;;;;;;;;;;;;;;;4.45;85.42;99542.18;107837;1255;125370;-79
2023/04/01 03:09:41;;;;;;;;;;;;;;;4.44;85.49;99549.95;107988;1258;67350;-78
2023/04/01 03:12:07;;;;;;;;;;;;;;;4.44;85.67;99553.59;107932;1254;125299;-78
2023/04/01 03:14:34;;;;;;;;;;;;;;;4.43;85.55;99555.14;108844;1256;60163;-78
2023/04/01 03:17:01;;;;;;;;;;;;;;;4.43;85.53;99557.73;107410;1257;62039;-78
2023/04/01 03:19:28;;;;;;;;;;;;;;;4.43;85.64;99560.86;108794;1255;124678;-78
2023/04/01 03:21:55;;;;;;;;;;;;;;;4.43;85.59;99566.05;107532;1262;65756;-79
2023/04/01 03:24:23;;;;;;;;;;;;;;;4.44;85.55;99567.99;107226;1262;125028;-79
2023/04/01 03:26:50;;;;;;;;;;;;;;;4.47;85.67;99568.45;107660;1256;62081;-78
2023/04/01 03:29:17;;;;;;;;;;;;;;;4.47;85.46;99568.80;107528;1256;62028;-78
2023/04/01 03:31:47;;;;;;;;;;;;;;;4.48;85.44;99570.58;107435;1256;125202;-79
2023/04/01 03:34:13;;;;;;;;;;;;;;;4.50;85.61;99568.35;107588;1256;66387;-78
2023/04/01 03:36:40;;;;;;;;;;;;;;;4.53;85.78;99563.94;107766;1256;125062;-79
2023/04/01 03:39:07;;;;;;;;;;;;;;;4.56;85.69;99562.44;107788;1256;60736;-79
2023/04/01 03:41:35;;;;;;;;;;;;;;;4.56;85.86;99564.55;107807;1257;60262;-78
2023/04/01 03:44:02;;;;;;;;;;;;;;;4.58;85.79;99564.10;107512;1258;125319;-78
2023/04/01 03:46:29;;;;;;;;;;;;;;;4.58;85.93;99563.02;107939;1256;67054;-78
2023/04/01 03:48:56;;;;;;;;;;;;;;;4.59;85.96;99566.71;107674;1260;125457;-78
2023/04/01 03:51:23;;;;;;;;;;;;;;;4.64;86.04;99561.14;107884;1259;61886;-78
2023/04/01 03:53:50;;;;;;;;;;;;;;;4.69;85.97;99562.67;107774;1259;60707;-78
2023/04/01 03:56:17;;;;;;;;;;;;;;;4.75;86.04;99563.89;107496;1259;124753;-78
2023/04/01 03:58:44;;;;;;;;;;;;;;;4.81;85.97;99565.27;107523;1259;67856;-78
2023/04/01 04:01:15;;;;;;;;;;;;;;;4.84;85.80;99564.86;107463;1257;125228;-78
2023/04/01 04:03:43;;;;;;;;;;;;;;;4.88;85.62;99572.09;107459;1261;62034;-78
2023/04/01 04:06:11;;;;;;;;;;;;;;;4.91;85.49;99573.05;107619;1259;125758;-78
2023/04/01 04:08:38;;;;;;;;;;;;;;;4.89;85.40;99576.48;108762;1256;75498;-78
2023/04/01 04:11:05;;;;;;;;;;;;;;;4.91;85.40;99581.38;108867;1255;65805;-78
2023/04/01 04:13:32;;;;;;;;;;;;;;;4.88;85.24;99582.33;108797;1257;125975;-78
2023/04/01 04:15:59;;;;;;;;;;;;;;;4.86;85.43;99583.88;109016;1255;60064;-78
2023/04/01 04:18:26;;;;;;;;;;;;;;;4.88;85.35;99583.38;108920;1256;125378;-78
2023/04/01 04:20:53;;;;;;;;;;;;;;;4.89;85.38;99589.15;108974;1259;74171;-78
2023/04/01 04:23:19;;;;;;;;;;;;;;;4.87;85.44;99587.55;108284;1257;66343;-78
2023/04/01 04:25:54;;;;;;;;;;;;;;;4.87;85.26;99588.93;107623;1256;125509;-78
2023/04/01 04:28:21;;;;;;;;;;;;;;;4.91;85.53;99587.14;107875;1259;60775;-79
2023/04/01 04:30:48;;;;;;;;;;;;;;;4.95;85.51;99589.67;107572;1259;125111;-79
2023/04/01 04:33:14;;;;;;;;;;;;;;;4.94;85.33;99594.17;107656;1259;74480;-78
2023/04/01 04:35:42;;;;;;;;;;;;;;;4.93;85.20;99591.02;107628;1259;67070;-78
2023/04/01 04:38:08;;;;;;;;;;;;;;;4.89;85.27;99590.20;107367;1260;125282;-79
2023/04/01 04:40:49;;;;;;;;;;;;;;;4.90;85.36;99595.08;107412;1256;61831;-80
2023/04/01 04:43:16;;;;;;;;;;;;;;;4.86;85.21;99597.58;107529;1258;124962;-79
2023/04/01 04:45:43;;;;;;;;;;;;;;;4.84;85.34;99598.56;107523;1256;74202;-79
2023/04/01 04:48:10;;;;;;;;;;;;;;;4.82;85.39;99594.36;107723;1257;124911;-78
2023/04/01 04:50:37;;;;;;;;;;;;;;;4.85;85.61;99598.27;107940;1257;71390;-79
2023/04/01 04:53:04;;;;;;;;;;;;;;;4.89;85.56;99599.92;107589;1255;63089;-80
2023/04/01 04:55:33;;;;;;;;;;;;;;;4.89;85.60;99597.32;108777;1256;124889;-80
2023/04/01 04:58:01;;;;;;;;;;;;;;;4.92;85.56;99599.48;108065;1256;74184;-81
2023/04/01 05:00:28;;;;;;;;;;;;;;;4.93;85.63;99603.86;108167;1253;125499;-80
2023/04/01 05:02:55;;;;;;;;;;;;;;;4.92;85.49;99605.23;108199;1255;72729;-79
2023/04/01 05:05:22;;;;;;;;;;;;;;;4.90;85.73;99607.41;108049;1259;60123;-82
2023/04/01 05:07:49;;;;;;;;;;;;;;;4.87;85.90;99605.09;107918;1254;125146;-81
2023/04/01 05:10:17;;;;;;;;;;;;;;;4.92;85.95;99610.45;107709;1254;75967;-81
2023/04/01 05:12:44;;;;;;;;;;;;;;;4.93;85.88;99618.13;107778;1257;125353;-83
2023/04/01 05:15:11;;;;;;;;;;;;;;;4.94;86.00;99612.08;107998;1254;73233;-79
2023/04/01 05:17:38;;;;;;;;;;;;;;;4.95;85.97;99612.45;108186;1254;60165;-82
2023/04/01 05:20:05;;;;;;;;;;;;;;;4.96;86.15;99612.48;108192;1257;124721;-79
2023/04/01 05:22:32;;;;;;;;;;;;;;;4.99;86.26;99614.45;108314;1254;75421;-81
2023/04/01 05:24:59;;;;;;;;;;;;;;;5.01;86.52;99619.08;107879;1259;125158;-81
2023/04/01 05:27:26;;;;;;;;;;;;;;;5.05;86.42;99619.70;108123;1254;72597;-81
2023/04/01 05:29:57;;;;;;;;;;;;;;;5.02;86.63;99622.92;108057;1256;61131;-80
2023/04/01 05:32:24;;;;;;;;;;;;;;;5.01;86.68;99623.23;108053;1253;124792;-83
2023/04/01 05:34:51;;;;;;;;;;;;;;;5.02;86.62;99630.03;107807;1259;76185;-80
2023/04/01 05:37:19;;;;;;;;;;;;;;;4.99;86.68;99624.55;107466;1254;124813;-82
2023/04/01 05:39:59;;;;;;;;;;;;;;;4.99;86.99;99627.52;107547;1254;71613;-82
2023/04/01 05:42:26;;;;;;;;;;;;;;;5.02;86.86;99627.08;107462;1260;125590;-82
2023/04/01 05:44:55;;;;;;;;;;;;;;;5.01;86.84;99627.92;107835;1257;62055;-82
2023/04/01 05:47:22;;;;;;;;;;;;;;;5.02;86.81;99631.95;107644;1255;75579;-81
2023/04/01 05:49:49;;;;;;;;;;;;;;;4.97;86.59;99637.20;107348;1256;124879;-82
2023/04/01 05:52:16;;;;;;;;;;;;;;;4.89;86.66;99638.86;107443;1258;70538;-82
2023/04/01 05:55:03;;;;;;;;;;;;;;;4.84;87.00;99636.13;107511;1258;125458;-82
2023/04/01 05:57:30;;;;;;;;;;;;;;;4.87;87.39;99650.12;107796;1254;61711;-83
2023/04/01 05:59:58;;;;;;;;;;;;;;;4.84;87.72;99648.11;107602;1255;74204;-81
2023/04/01 06:02:25;;;;;;;;;;;;;;;4.80;87.83;99651.63;107443;1258;125195;-82
2023/04/01 06:05:03;;;;;;;;;;;;;;;4.79;88.11;99654.56;107636;1260;73321;-83
2023/04/01 06:07:40;;;;;;;;;;;;;;;4.80;88.19;99657.38;107249;1254;124944;-82
2023/04/01 06:10:11;;;;;;;;;;;;;;;4.75;88.01;99653.23;107471;1255;62012;-80
2023/04/01 06:12:45;;;;;;;;;;;;;;;4.74;88.19;99657.89;107543;1257;124899;-82
2023/04/01 06:15:21;;;;;;;;;;;;;;;4.77;88.09;99660.07;107924;1257;67581;-80
2023/04/01 06:18:07;;;;;;;;;;;;;;;4.81;88.09;99659.32;107739;1258;71397;-83
2023/04/01 06:20:53;;;;;;;;;;;;;;;4.84;88.11;99666.90;107832;1256;60188;-84
2023/04/01 06:23:39;;;;;;;;;;;;;;;4.73;87.85;99673.31;108053;1260;62062;-80
2023/04/01 06:26:18;;;;;;;;;;;;;;;4.64;88.08;99674.44;107699;1258;124973;-82
2023/04/01 06:28:51;;;;;;;;;;;;;;;4.63;89.01;99679.77;108055;1255;67061;-80
2023/04/01 06:31:18;;;;;;;;;;;;;;;4.67;88.59;99679.56;107812;1258;125448;-81
2023/04/01 06:33:54;;;;;;;;;;;;;;;4.69;88.41;99684.14;108129;1260;61210;-81
2023/04/01 06:36:32;;;;;;;;;;;;;;;4.63;88.32;99687.96;107798;1257;125080;-81
2023/04/01 06:39:05;;;;;;;;;;;;;;;4.56;88.45;99691.02;107513;1262;74262;-85
2023/04/01 06:41:34;;;;;;;;;;;;;;;4.51;88.68;99697.83;107705;1257;67071;-82
2023/04/01 06:44:13;;;;;;;;;;;;;;;4.46;88.85;99691.91;107651;1257;125415;-80
2023/04/01 06:46:46;;;;;;;;;;;;;;;4.49;89.09;99698.98;107970;1262;61730;-80
2023/04/01 06:49:25;;;;;;;;;;;;;;;4.45;89.47;99702.33;107562;1255;124147;-84
2023/04/01 06:52:13;;;;;;;;;;;;;;;4.42;89.47;99709.70;107647;1259;75450;-82
2023/04/01 06:54:42;;;;;;;;;;;;;;;4.36;89.67;99705.30;107435;1257;124985;-82
2023/04/01 06:57:38;;;;;;;;;;;;;;;4.38;90.08;99702.60;107974;1257;72723;-79
2023/04/01 07:00:12;;;;;;;;;;;;;;;4.42;90.14;99712.30;107339;1265;60783;-84
2023/04/01 07:02:53;;;;;;;;;;;;;;;4.44;90.24;99718.09;107330;1261;62034;-82
2023/04/01 07:05:20;;;;;;;;;;;;;;;4.41;90.17;99717.98;107356;1262;75569;-81
2023/04/01 07:07:48;;;;;;;;;;;;;;;4.43;90.07;99716.50;107195;1260;124951;-86
2023/04/01 07:10:17;;;;;;;;;;;;;;;4.45;90.15;99718.13;107126;1261;72699;-88
2023/04/01 07:12:47;;;;;;;;;;;;;;;4.45;90.20;99732.91;107288;1262;125562;-83
2023/04/01 07:15:16;;;;;;;;;;;;;;;4.40;90.45;99731.34;107318;1260;62383;-83
2023/04/01 07:17:52;;;;;;;;;;;;;;;4.39;90.18;99733.91;107308;1266;76067;-83
2023/04/01 07:20:23;;;;;;;;;;;;;;;4.40;90.34;99743.17;107334;1265;125119;-84
2023/04/01 07:22:51;;;;;;;;;;;;;;;4.41;90.20;99740.77;107446;1264;73784;-84
2023/04/01 07:25:21;;;;;;;;;;;;;;;4.41;90.25;99743.34;107385;1261;125107;-86
2023/04/01 07:27:57;;;;;;;;;;;;;;;4.47;90.53;99743.02;107375;1260;62104;-85
2023/04/01 07:30:43;;;;;;;;;;;;;;;4.57;90.62;99745.45;107406;1261;125455;-84
2023/04/01 07:33:15;;;;;;;;;;;;;;;4.63;90.71;99744.61;107397;1265;67142;-82
2023/04/01 07:35:51;;;;;;;;;;;;;;;4.72;90.72;99747.52;107350;1260;73194;-82
2023/04/01 07:38:38;;;;;;;;;;;;;;;4.76;91.00;99750.23;107727;1257;124960;-81
2023/04/01 07:41:25;;;;;;;;;;;;;;;4.78;90.59;99746.48;107854;1257;60864;-82
2023/04/01 07:44:05;;;;;;;;;;;;;;;4.80;90.75;99753.84;107774;1256;124948;-82
2023/04/01 07:46:32;;;;;;;;;;;;;;;4.85;90.67;99755.39;107898;1257;65870;-87
2023/04/01 07:49:14;;;;;;;;;;;;;;;4.94;90.44;99753.42;107827;1256;125176;-82
2023/04/01 07:51:44;;;;;;;;;;;;;;;5.01;90.24;99754.67;107923;1254;62571;-81
2023/04/01 07:54:11;;;;;;;;;;;;;;;5.05;90.41;99760.53;107880;1260;62136;-82
2023/04/01 07:56:38;;;;;;;;;;;;;;;5.04;90.29;99764.67;107929;1257;74405;-86
2023/04/01 07:59:14;;;;;;;;;;;;;;;5.04;90.10;99766.09;107815;1257;65578;-84
2023/04/01 08:02:00;;;;;;;;;;;;;;;5.06;89.93;99775.00;107764;1260;125081;-81
2023/04/01 08:04:33;;;;;;;;;;;;;;;5.01;89.53;99773.10;107888;1257;62178;-82
2023/04/01 08:07:07;;;;;;;;;;;;;;;4.99;89.59;99776.17;107832;1256;124753;-82
2023/04/01 08:09:35;;;;;;;;;;;;;;;5.02;89.50;99774.89;107682;1257;75437;-82
2023/04/01 08:12:02;;;;;;;;;;;;;;;5.05;89.82;99779.48;108167;1253;65708;-83
2023/04/01 08:14:38;;;;;;;;;;;;;;;5.03;90.32;99784.64;107742;1256;125395;-85
2023/04/01 08:17:06;;;;;;;;;;;;;;;5.06;89.94;99785.44;107766;1256;60773;-86
2023/04/01 08:19:36;;;;;;;;;;;;;;;5.08;89.74;99787.58;107685;1257;124835;-84
2023/04/01 08:22:04;;;;;;;;;;;;;;;5.16;89.82;99796.34;108203;1257;74503;-83
2023/04/01 08:24:45;;;;;;;;;;;;;;;5.15;89.28;99801.35;107996;1256;125054;-82
2023/04/01 08:27:22;;;;;;;;;;;;;;;5.18;89.17;99808.60;108182;1257;73545;-84
2023/04/01 08:29:55;;;;;;;;;;;;;;;5.15;88.90;99811.98;107866;1257;62239;-81
2023/04/01 08:32:25;;;;;;;;;;;;;;;5.15;88.81;99812.83;107794;1256;125399;-85
2023/04/01 08:35:08;;;;;;;;;;;;;;;5.13;88.81;99812.94;107762;1256;75284;-84
2023/04/01 08:37:42;;;;;;;;;;;;;;;5.15;88.87;99813.55;107446;1257;124904;-85
2023/04/01 08:40:30;;;;;;;;;;;;;;;5.15;88.78;99822.41;107354;1257;72820;-83
2023/04/01 08:43:16;;;;;;;;;;;;;;;5.08;88.63;99819.74;107498;1257;125413;-83
2023/04/01 08:45:56;;;;;;;;;;;;;;;5.07;88.66;99833.27;107832;1257;62028;-85
2023/04/01 08:48:36;;;;;;;;;;;;;;;5.05;89.24;99830.25;107788;1257;74010;-83
2023/04/01 08:51:11;;;;;;;;;;;;;;;5.08;89.05;99828.27;107712;1257;67666;-81
2023/04/01 08:53:51;;;;;;;;;;;;;;;5.13;88.87;99829.30;107719;1256;72631;-81
2023/04/01 08:56:20;;;;;;;;;;;;;;;5.17;88.67;99830.48;108683;1256;124990;-82
2023/04/01 08:58:48;;;;;;;;;;;;;;;5.26;88.41;99834.93;107620;1257;61960;-83
2023/04/01 09:01:35;;;;;;;;;;;;;;;5.25;88.22;99837.87;107586;1256;124766;-83
2023/04/01 09:04:08;;;;;;;;;;;;;;;5.25;88.02;99842.05;107967;1257;67696;-85
2023/04/01 09:06:37;;;;;;;;;;;;;;;5.21;88.04;99845.04;107928;1256;124901;-81
2023/04/01 09:09:17;;;;;;;;;;;;;;;5.25;88.23;99855.27;108075;1256;62082;-84
2023/04/01 09:11:44;;;;;;;;;;;;;;;5.25;87.93;99853.50;107915;1256;61832;-84
2023/04/01 09:17:06;;;;;;;;;;;;;;;5.08;87.78;99857.67;107712;1253;67224;-83
2023/04/01 09:19:38;;;;;;;;;;;;;;;5.01;87.83;99860.05;107410;1257;125268;-84
2023/04/01 09:22:48;;;;;;;;;;;;;;;4.88;87.71;99858.74;107781;1255;62023;-85
2023/04/01 09:28:56;;;;;;;;;;;;;;;4.87;88.23;99874.02;107136;1265;75431;-84
2023/04/01 09:31:43;;;;;;;;;;;;;;;4.89;88.18;99875.29;107772;1255;124986;-81
2023/04/01 09:34:13;;;;;;;;;;;;;;;4.84;88.27;99882.44;107986;1256;71520;-82
2023/04/01 09:36:46;;;;;;;;;;;;;;;4.82;88.30;99883.73;107774;1260;125146;-82
2023/04/01 09:39:19;;;;;;;;;;;;;;;4.82;88.11;99890.68;107615;1255;346891;-81
2023/04/01 09:41:55;;;;;;;;;;;;;;;4.79;88.80;99887.11;107925;1257;75601;-81
2023/04/01 09:44:25;;;;;;;;;;;;;;;4.80;88.71;99889.92;108012;1260;124765;-82
2023/04/01 09:47:13;;;;;;;;;;;;;;;4.77;88.72;99900.94;108190;1256;71630;-82
2023/04/01 09:49:53;;;;;;;;;;;;;;;4.76;88.88;99902.15;107857;1257;125515;-81
2023/04/01 09:52:31;;;;;;;;;;;;;;;4.77;88.75;99901.46;108157;1257;60669;-82
2023/04/01 09:55:02;;;;;;;;;;;;;;;4.83;88.72;99907.26;107679;1255;125391;-82
2023/04/01 09:57:29;;;;;;;;;;;;;;;4.82;88.33;99910.17;107652;1260;66839;-81
2023/04/01 10:00:05;;;;;;;;;;;;;;;4.76;88.03;99913.08;107940;1254;71634;-82
2023/04/01 10:02:32;;;;;;;;;;;;;;;4.76;88.30;99915.34;107995;1254;125470;-81
2023/04/01 10:05:18;;;;;;;;;;;;;;;4.79;88.13;99915.99;108103;1257;60178;-82
2023/04/01 10:07:57;;;;;;;;;;;;;;;4.82;88.05;99918.69;107989;1253;124694;-82
2023/04/01 10:10:31;;;;;;;;;;;;;;;4.89;88.18;99926.21;108232;1254;65811;-82
2023/04/01 10:13:17;;;;;;;;;;;;;;;4.91;87.96;99931.84;108035;1253;125461;-82
2023/04/01 10:15:44;;;;;;;;;;;;;;;4.92;87.92;99935.88;108108;1254;61999;-82
2023/04/01 10:18:15;;;;;;;;;;;;;;;4.94;87.78;99943.79;108088;1256;62071;-82
2023/04/01 10:20:42;;;;;;;;;;;;;;;4.89;87.50;99944.48;107588;1253;126082;-82
2023/04/01 10:23:18;;;;;;;;;;;;;;;4.78;87.22;99946.17;107913;1253;65780;-82
2023/04/01 10:26:04;;;;;;;;;;;;;;;4.68;87.55;99943.21;107864;1253;124154;-81
2023/04/01 10:28:37;;;;;;;;;;;;;;;4.69;87.93;99947.10;108139;1254;60751;-82
2023/04/01 10:31:10;;;;;;;;;;;;;;;4.72;87.74;99950.99;107960;1254;126249;-82
2023/04/01 10:33:55;;;;;;;;;;;;;;;4.77;87.81;99954.13;108182;1253;75268;-81
2023/04/01 10:36:41;;;;;;;;;;;;;;;4.79;87.71;99959.95;108009;1254;67233;-81
2023/04/01 10:39:17;;;;;;;;;;;;;;;4.77;87.65;99957.45;107884;1253;73304;-81
2023/04/01 10:41:44;;;;;;;;;;;;;;;4.79;87.60;99961.50;108080;1256;61152;-81
2023/04/01 10:44:31;;;;;;;;;;;;;;;4.80;87.63;99964.14;108118;1254;124754;-81
2023/04/01 10:47:35;;;;;;;;;;;;;;;4.79;87.37;99961.50;107373;1254;72987;-81
2023/04/01 10:50:14;;;;;;;;;;;;;;;4.74;88.11;99967.23;107587;1254;125175;-81
2023/04/01 10:52:57;;;;;;;;;;;;;;;4.79;87.85;99973.18;107601;1254;71450;-81
2023/04/01 10:55:27;;;;;;;;;;;;;;;4.87;88.01;99974.51;107733;1253;124998;-81
2023/04/01 10:58:18;;;;;;;;;;;;;;;4.95;88.09;99979.80;107636;1253;60758;-81
2023/04/01 11:01:03;;;;;;;;;;;;;;;4.94;87.53;99978.71;107535;1256;124863;-82
2023/04/01 11:03:40;;;;;;;;;;;;;;;4.95;87.40;99985.73;107765;1260;67050;-82
2023/04/01 11:06:25;;;;;;;;;;;;;;;4.96;87.88;99981.93;107682;1259;72831;-82
2023/04/01 11:09:02;;;;;;;;;;;;;;;5.10;87.85;99985.55;107646;1257;124688;-81
2023/04/01 11:11:29;;;;;;;;;;;;;;;5.21;87.59;99992.36;107820;1256;62288;-81
2023/04/01 11:13:59;;;;;;;;;;;;;;;5.32;87.39;99993.08;107716;1255;125306;-81
2023/04/01 11:16:35;;;;;;;;;;;;;;;5.23;88.34;99995.54;108962;1255;65686;-82
2023/04/01 11:19:05;;;;;;;;;;;;;;;5.06;88.21;99998.98;108963;1255;125484;-82
2023/04/01 11:21:53;;;;;;;;;;;;;;;5.01;87.19;100006.64;108894;1256;60854;-81
2023/04/01 11:24:20;;;;;;;;;;;;;;;4.99;87.41;100004.65;107684;1256;60536;-81
2023/04/01 11:27:06;;;;;;;;;;;;;;;4.98;87.00;100007.73;107651;1256;125318;-81
2023/04/01 11:29:45;;;;;;;;;;;;;;;4.93;87.23;100012.25;109050;1254;64783;-82
2023/04/01 11:32:26;;;;;;;;;;;;;;;4.89;87.16;100008.45;108933;1256;125127;-81
2023/04/01 11:34:57;;;;;;;;;;;;;;;4.92;87.30;100010.48;107893;1257;61015;-82
2023/04/01 11:37:27;;;;;;;;;;;;;;;4.93;87.10;100011.56;107447;1256;125378;-81
2023/04/01 11:39:59;;;;;;;;;;;;;;;4.92;87.14;100010.45;107645;1257;75371;-82
2023/04/01 11:42:33;;;;;;;;;;;;;;;4.96;86.94;100010.26;108958;1256;67187;-82
2023/04/01 11:45:20;;;;;;;;;;;;;;;5.04;86.98;100014.73;109058;1255;70649;-81
2023/04/01 11:48:05;;;;;;;;;;;;;;;5.11;86.82;100017.73;108231;1256;61899;-81
2023/04/01 11:50:32;;;;;;;;;;;;;;;5.04;86.20;100018.03;108084;1255;125119;-81
2023/04/01 11:53:06;;;;;;;;;;;;;;;4.98;86.05;100020.79;107895;1256;74194;-81
2023/04/01 11:55:52;;;;;;;;;;;;;;;4.95;85.85;100021.16;108710;1257;125824;-85
2023/04/01 11:58:34;;;;;;;;;;;;;;;5.00;86.44;100019.96;108132;1256;71389;-83
2023/04/01 12:01:20;;;;;;;;;;;;;;;5.06;86.26;100020.02;107941;1256;125636;-80
2023/04/01 12:03:51;;;;;;;;;;;;;;;5.11;85.89;100027.49;108202;1256;60548;-83
2023/04/01 12:06:19;;;;;;;;;;;;;;;5.14;85.51;100030.19;108077;1257;77605;-80
2023/04/01 12:09:04;;;;;;;;;;;;;;;5.18;85.21;100031.75;107892;1256;125207;-81
2023/04/01 12:11:39;;;;;;;;;;;;;;;5.26;85.46;100029.73;108073;1256;72693;-77
2023/04/01 12:14:29;;;;;;;;;;;;;;;5.26;85.09;100033.40;107644;1255;125453;-80
2023/04/01 12:17:02;;;;;;;;;;;;;;;5.07;84.62;100034.66;107532;1259;61931;-79
2023/04/01 12:19:38;;;;;;;;;;;;;;;4.94;84.59;100052.25;108807;1255;125250;-79
2023/04/01 12:22:11;;;;;;;;;;;;;;;4.87;84.61;100040.34;108903;1260;68508;-78
2023/04/01 12:25:02;;;;;;;;;;;;;;;4.93;84.68;100052.77;108851;1256;125511;-79
2023/04/01 12:27:50;;;;;;;;;;;;;;;4.93;84.41;100050.33;108435;1255;62148;-79
2023/04/01 12:30:30;;;;;;;;;;;;;;;4.84;84.37;100052.25;107974;1256;61381;-78
2023/04/01 12:33:06;;;;;;;;;;;;;;;4.81;84.99;100050.75;107888;1256;125184;-79
2023/04/01 12:35:51;;;;;;;;;;;;;;;4.84;85.12;100057.30;108087;1256;68082;-81
2023/04/01 12:38:31;;;;;;;;;;;;;;;4.83;85.15;100057.09;107862;1257;125894;-80
2023/04/01 12:41:14;;;;;;;;;;;;;;;4.84;84.92;100061.13;108139;1257;61146;-80
2023/04/01 12:43:57;;;;;;;;;;;;;;;4.87;84.63;100059.67;108821;1256;125717;-79
2023/04/01 12:46:25;;;;;;;;;;;;;;;4.89;85.34;100069.10;108790;1255;75991;-78
2023/04/01 12:49:05;;;;;;;;;;;;;;;4.84;85.03;100075.56;108844;1260;125165;-80
2023/04/01 12:51:57;;;;;;;;;;;;;;;4.78;84.40;100082.80;108063;1260;70623;-77
2023/04/01 12:54:27;;;;;;;;;;;;;;;4.70;84.12;100084.24;107627;1256;62279;-79
2023/04/01 12:57:13;;;;;;;;;;;;;;;4.60;83.87;100093.77;107571;1255;125289;-76
2023/04/01 12:59:52;;;;;;;;;;;;;;;4.47;84.18;100097.79;107485;1256;76531;-77
2023/04/01 13:02:28;;;;;;;;;;;;;;;4.46;84.48;100096.54;107491;1257;66048;-77
2023/04/01 13:04:58;;;;;;;;;;;;;;;4.57;84.68;100115.19;107783;1256;71440;-79
2023/04/01 13:07:34;;;;;;;;;;;;;;;4.56;84.39;100108.56;107892;1256;125287;-79
2023/04/01 13:10:04;;;;;;;;;;;;;;;4.57;84.42;100109.12;107901;1256;61898;-79
2023/04/01 13:12:48;;;;;;;;;;;;;;;4.61;84.43;100106.30;107954;1256;75203;-80
2023/04/01 13:15:28;;;;;;;;;;;;;;;4.65;84.25;100113.11;107833;1256;66816;-80